createdAt,value
2022-08-09T00:01:42.313Z,2.99
2022-08-09T00:06:49.478Z,2.98
2022-08-09T00:11:58.024Z,2.99
2022-08-09T00:17:11.280Z,2.99
2022-08-09T00:22:19.290Z,2.98
2022-08-09T00:27:33.974Z,2.98
2022-08-09T00:32:41.160Z,3.0
2022-08-09T00:37:48.984Z,2.99
2022-08-09T00:42:56.723Z,2.98
2022-08-09T00:48:04.088Z,2.98
2022-08-09T00:53:11.256Z,3.0
2022-08-09T00:58:19.100Z,2.98
2022-08-09T01:03:26.619Z,2.98
2022-08-09T01:08:33.499Z,2.99
2022-08-09T01:13:40.725Z,2.98
2022-08-09T01:18:48.521Z,2.98
2022-08-09T01:23:56.220Z,2.99
2022-08-09T01:29:12.544Z,2.97
2022-08-09T01:34:19.733Z,3.0
2022-08-09T01:39:27.647Z,2.99
2022-08-09T01:44:34.804Z,2.99
2022-08-09T01:49:42.569Z,2.98
2022-08-09T01:54:49.764Z,2.99
2022-08-09T02:00:05.275Z,2.98
2022-08-09T02:05:11.899Z,2.98
2022-08-09T02:10:18.878Z,2.99
2022-08-09T02:15:26.530Z,2.99
2022-08-09T02:20:33.491Z,2.98
2022-08-09T02:25:41.314Z,2.98
2022-08-09T02:30:48.554Z,2.98
2022-08-09T02:35:56.419Z,2.99
2022-08-09T02:41:04.289Z,2.98
2022-08-09T02:46:12.474Z,2.98
2022-08-09T02:51:27.582Z,2.98
2022-08-09T02:56:35.687Z,2.99
2022-08-09T03:01:43.686Z,2.98
2022-08-09T03:06:51.127Z,2.98
2022-08-09T03:12:04.081Z,2.98
2022-08-09T03:17:11.936Z,2.99
2022-08-09T03:22:20.689Z,2.97
2022-08-09T03:28:08.533Z,2.99
2022-08-09T03:33:16.669Z,2.99
2022-08-09T03:38:24.598Z,2.99
2022-08-09T03:43:39.099Z,2.98
2022-08-09T03:48:46.673Z,2.98
2022-08-09T03:53:53.854Z,2.97
2022-08-09T03:59:02.434Z,2.98
2022-08-09T04:04:10.964Z,2.98
2022-08-09T04:09:19.050Z,2.98
2022-08-09T04:14:26.935Z,2.98
2022-08-09T04:19:34.872Z,3.0
2022-08-09T04:24:42.504Z,2.99
2022-08-09T04:29:49.899Z,2.99
2022-08-09T04:34:58.140Z,2.99
2022-08-09T04:40:05.363Z,3.0
2022-08-09T04:45:13.111Z,3.01
2022-08-09T04:50:21.403Z,3.0
2022-08-09T04:55:29.427Z,3.0
2022-08-09T05:00:38.479Z,3.0
2022-08-09T05:05:46.730Z,3.01
2022-08-09T05:10:53.659Z,3.0
2022-08-09T05:16:02.003Z,3.01
2022-08-09T05:21:10.128Z,3.01
2022-08-09T05:26:18.975Z,3.0
2022-08-09T05:31:26.929Z,3.0
2022-08-09T05:36:34.132Z,2.99
2022-08-09T05:41:41.337Z,3.0
2022-08-09T05:46:49.173Z,3.01
2022-08-09T05:51:58.055Z,3.02
2022-08-09T05:57:05.669Z,3.0
2022-08-09T06:02:14.079Z,3.01
2022-08-09T06:07:21.945Z,3.01
2022-08-09T06:12:31.052Z,3.01
2022-08-09T06:17:38.810Z,3.0
2022-08-09T06:22:47.192Z,2.99
2022-08-09T06:27:54.458Z,3.0
2022-08-09T06:33:03.290Z,3.0
2022-08-09T06:38:10.935Z,3.01
2022-08-09T06:43:17.978Z,3.02
2022-08-09T06:48:25.178Z,3.01
2022-08-09T06:53:32.647Z,3.0
2022-08-09T06:58:39.890Z,3.02
2022-08-09T07:03:47.412Z,3.01
2022-08-09T07:08:54.911Z,3.01
2022-08-09T07:14:02.537Z,3.01
2022-08-09T07:19:09.031Z,3.01
2022-08-09T07:24:16.853Z,3.01
2022-08-09T07:29:24.406Z,3.01
2022-08-09T07:34:31.034Z,3.02
2022-08-09T07:39:39.849Z,3.02
2022-08-09T07:44:48.729Z,3.02
2022-08-09T07:49:56.057Z,3.01
2022-08-09T07:55:03.349Z,3.03
2022-08-09T08:00:11.735Z,3.02
2022-08-09T08:05:19.622Z,3.02
2022-08-09T08:10:32.683Z,3.02
2022-08-09T08:15:40.304Z,3.02
2022-08-09T08:20:47.774Z,3.01
2022-08-09T08:25:55.448Z,3.02
2022-08-09T08:31:02.635Z,3.02
2022-08-09T08:36:10.462Z,3.02
2022-08-09T08:41:18.025Z,3.02
2022-08-09T08:46:26.014Z,3.02
2022-08-09T08:51:34.617Z,3.02
2022-08-09T08:56:41.182Z,3.02
2022-08-09T09:01:49.527Z,3.03
2022-08-09T09:06:58.983Z,3.02
2022-08-09T09:12:05.651Z,3.03
2022-08-09T09:17:12.539Z,3.02
2022-08-09T09:22:20.642Z,3.02
2022-08-09T09:27:27.575Z,3.03
2022-08-09T09:32:36.474Z,3.02
2022-08-09T09:37:43.230Z,3.02
2022-08-09T09:42:51.189Z,3.02
2022-08-09T09:47:58.808Z,3.03
2022-08-09T09:53:07.251Z,3.03
2022-08-09T09:58:14.164Z,3.02
2022-08-09T10:03:21.217Z,3.03
2022-08-09T10:08:29.515Z,3.02
2022-08-09T10:13:36.854Z,3.02
2022-08-09T10:18:44.698Z,3.03
2022-08-09T10:23:52.921Z,3.02
2022-08-09T10:29:00.523Z,3.03
2022-08-09T10:34:06.937Z,3.03
2022-08-09T10:39:14.949Z,3.02
2022-08-09T10:44:23.258Z,3.02
2022-08-09T10:49:31.050Z,3.03
2022-08-09T10:54:37.018Z,3.02
2022-08-09T10:59:44.895Z,3.03
2022-08-09T11:04:51.519Z,3.03
2022-08-09T11:09:59.588Z,3.03
2022-08-09T11:15:06.567Z,3.03
2022-08-09T11:20:13.631Z,3.03
2022-08-09T11:25:21.239Z,3.02
2022-08-09T11:30:33.857Z,3.02
2022-08-09T11:35:40.034Z,3.04
2022-08-09T11:40:46.942Z,3.03
2022-08-09T11:45:54.179Z,3.02
2022-08-09T11:51:01.977Z,3.03
2022-08-09T11:56:09.965Z,3.03
2022-08-09T12:01:17.526Z,3.03
2022-08-09T12:06:25.477Z,3.03
2022-08-09T12:11:34.066Z,3.03
2022-08-09T12:16:41.052Z,3.03
2022-08-09T12:21:48.552Z,3.03
2022-08-09T12:26:55.585Z,3.02
2022-08-09T12:32:03.418Z,3.03
2022-08-09T12:37:10.620Z,3.02
2022-08-09T12:42:18.766Z,3.03
2022-08-09T12:47:27.690Z,3.02
2022-08-09T12:52:34.941Z,3.02
2022-08-09T12:57:42.090Z,3.03
2022-08-09T13:02:49.213Z,3.03
2022-08-09T13:07:57.524Z,3.03
2022-08-09T13:13:04.816Z,3.03
2022-08-09T13:18:13.071Z,3.02
2022-08-09T13:23:21.559Z,3.03
2022-08-09T13:28:28.378Z,3.02
2022-08-09T13:33:35.586Z,3.02
2022-08-09T13:38:43.633Z,3.03
2022-08-09T13:43:52.037Z,3.03
2022-08-09T13:48:58.679Z,3.03
2022-08-09T13:54:07.582Z,3.02
2022-08-09T13:59:15.618Z,3.03
2022-08-09T14:04:22.626Z,3.03
2022-08-09T14:09:31.118Z,3.03
2022-08-09T14:14:40.580Z,3.03
2022-08-09T14:19:48.055Z,3.03
2022-08-09T14:24:56.470Z,3.03
2022-08-09T14:30:04.137Z,3.03
2022-08-09T14:35:12.725Z,3.02
2022-08-09T14:40:19.496Z,3.02
2022-08-09T14:45:26.358Z,3.03
2022-08-09T14:50:34.964Z,3.02
2022-08-09T14:55:41.825Z,3.04
2022-08-09T15:00:49.025Z,3.03
2022-08-09T15:05:57.006Z,3.03
2022-08-09T15:11:05.195Z,3.03
2022-08-09T15:16:20.178Z,3.03
2022-08-09T15:21:29.546Z,3.02
2022-08-09T15:26:38.154Z,3.02
2022-08-09T15:31:46.565Z,3.03
2022-08-09T15:36:54.959Z,3.03
2022-08-09T15:42:01.474Z,3.03
2022-08-09T15:47:09.142Z,3.03
2022-08-09T15:52:17.374Z,3.03
2022-08-09T15:57:25.337Z,3.02
2022-08-09T16:02:32.701Z,3.03
2022-08-09T16:07:40.381Z,3.03
2022-08-09T16:12:48.442Z,3.02
2022-08-09T16:17:56.632Z,3.03
2022-08-09T16:23:04.474Z,3.03
2022-08-09T16:28:11.737Z,3.02
2022-08-09T16:33:19.306Z,3.01
2022-08-09T16:38:25.994Z,3.03
2022-08-09T16:43:32.698Z,3.02
2022-08-09T16:48:39.633Z,3.03
2022-08-09T16:53:48.043Z,3.02
2022-08-09T16:58:55.216Z,3.02
2022-08-09T17:04:02.382Z,3.03
2022-08-09T17:09:08.697Z,3.03
2022-08-09T17:14:16.647Z,3.02
2022-08-09T17:19:23.990Z,3.02
2022-08-09T17:24:30.300Z,3.02
2022-08-09T17:29:39.285Z,3.03
2022-08-09T17:34:47.431Z,3.02
2022-08-09T17:39:55.819Z,3.02
2022-08-09T17:45:03.795Z,3.02
2022-08-09T17:50:11.436Z,3.02
2022-08-09T17:55:20.055Z,3.02
2022-08-09T18:00:27.195Z,3.03
2022-08-09T18:05:35.435Z,3.02
2022-08-09T18:10:43.799Z,3.02
2022-08-09T18:15:51.255Z,3.02
2022-08-09T18:20:58.815Z,3.02
2022-08-09T18:26:06.649Z,3.02
2022-08-09T18:31:14.181Z,3.02
2022-08-09T18:36:23.128Z,3.02
2022-08-09T18:41:31.010Z,3.02
2022-08-09T18:46:37.692Z,3.02
2022-08-09T18:51:44.524Z,3.01
2022-08-09T18:56:51.765Z,3.02
2022-08-09T19:01:59.283Z,3.01
2022-08-09T19:07:07.671Z,3.02
2022-08-09T19:12:15.116Z,3.01
2022-08-09T19:17:23.283Z,3.01
2022-08-09T19:22:31.742Z,3.01
2022-08-09T19:27:39.200Z,3.01
2022-08-09T19:32:47.943Z,3.02
2022-08-09T19:37:56.017Z,3.01
2022-08-09T19:43:03.264Z,3.01
2022-08-09T19:48:10.864Z,3.0
2022-08-09T19:53:17.893Z,3.01
2022-08-09T19:58:25.015Z,3.0
2022-08-09T20:03:32.153Z,3.01
2022-08-09T20:08:39.949Z,3.0
2022-08-09T20:13:47.858Z,3.01
2022-08-09T20:18:54.935Z,3.01
2022-08-09T20:24:03.417Z,3.01
2022-08-09T20:29:09.970Z,3.01
2022-08-09T20:34:17.808Z,3.02
2022-08-09T20:39:26.169Z,3.02
2022-08-09T20:44:35.058Z,3.0
2022-08-09T20:49:42.294Z,3.01
2022-08-09T20:54:50.321Z,3.01
2022-08-09T21:00:00.200Z,3.01
2022-08-09T21:05:09.214Z,3.0
2022-08-09T21:10:17.679Z,3.0
2022-08-09T21:15:26.162Z,3.01
2022-08-09T21:20:33.485Z,3.01
2022-08-09T21:25:41.364Z,3.0
2022-08-09T21:30:49.502Z,3.0
2022-08-09T21:35:58.299Z,3.01
2022-08-09T21:41:06.158Z,3.0
2022-08-09T21:46:13.335Z,3.0
2022-08-09T21:51:21.110Z,3.0
2022-08-09T21:56:31.488Z,3.01
2022-08-09T22:01:41.169Z,3.0
2022-08-09T22:06:48.563Z,3.0
2022-08-09T22:11:56.598Z,3.0
2022-08-09T22:17:05.291Z,3.0
2022-08-09T22:22:13.648Z,3.0
2022-08-09T22:27:22.001Z,3.0
2022-08-09T22:32:30.357Z,3.0
2022-08-09T22:37:38.206Z,3.01
2022-08-09T22:42:45.847Z,3.01
2022-08-09T22:47:54.973Z,3.01
2022-08-09T22:53:03.363Z,3.01
2022-08-09T22:58:11.726Z,2.99
2022-08-09T23:03:21.594Z,2.99
2022-08-09T23:08:30.095Z,2.99
2022-08-09T23:13:38.469Z,2.99
2022-08-09T23:18:46.586Z,2.99
2022-08-09T23:23:53.821Z,3.0
2022-08-09T23:29:03.442Z,3.0
2022-08-09T23:34:10.780Z,3.01
2022-08-09T23:39:19.791Z,2.99
2022-08-09T23:44:27.890Z,2.99
2022-08-09T23:49:34.934Z,3.0
2022-08-09T23:54:42.728Z,2.99
2022-08-09T23:59:50.921Z,2.99
